sensor_id;sensor_type;location;lat;lon;timestamp;temperature;humidity
21616;DHT22;10970;48.714;9.584;2023-05-14T00:01:19;11.50;99.90
21616;DHT22;10970;48.714;9.584;2023-05-14T00:03:44;11.50;99.90
21616;DHT22;10970;48.714;9.584;2023-05-14T00:06:10;11.50;99.90
21616;DHT22;10970;48.714;9.584;2023-05-14T00:08:36;11.50;99.90
21616;DHT22;10970;48.714;9.584;2023-05-14T00:11:01;11.50;99.90
21616;DHT22;10970;48.714;9.584;2023-05-14T00:13:27;11.50;99.90
21616;DHT22;10970;48.714;9.584;2023-05-14T00:15:53;11.50;99.90
21616;DHT22;10970;48.714;9.584;2023-05-14T00:18:19;11.50;99.90
21616;DHT22;10970;48.714;9.584;2023-05-14T00:20:44;11.40;99.90
21616;DHT22;10970;48.714;9.584;2023-05-14T00:23:10;11.40;99.90
21616;DHT22;10970;48.714;9.584;2023-05-14T00:25:36;11.40;99.90
21616;DHT22;10970;48.714;9.584;2023-05-14T00:28:02;11.40;99.90
21616;DHT22;10970;48.714;9.584;2023-05-14T00:30:28;11.40;99.90
21616;DHT22;10970;48.714;9.584;2023-05-14T00:32:54;11.40;99.90
21616;DHT22;10970;48.714;9.584;2023-05-14T00:35:19;11.40;99.90
21616;DHT22;10970;48.714;9.584;2023-05-14T00:37:45;11.30;99.90
21616;DHT22;10970;48.714;9.584;2023-05-14T00:40:12;11.30;99.90
21616;DHT22;10970;48.714;9.584;2023-05-14T00:42:39;11.30;99.90
21616;DHT22;10970;48.714;9.584;2023-05-14T00:45:05;11.30;99.90
21616;DHT22;10970;48.714;9.584;2023-05-14T00:47:31;11.30;99.90
21616;DHT22;10970;48.714;9.584;2023-05-14T00:49:59;11.20;99.90
21616;DHT22;10970;48.714;9.584;2023-05-14T00:52:25;11.20;99.90
21616;DHT22;10970;48.714;9.584;2023-05-14T00:54:51;11.20;99.90
21616;DHT22;10970;48.714;9.584;2023-05-14T00:57:17;11.20;99.90
21616;DHT22;10970;48.714;9.584;2023-05-14T00:59:43;11.20;99.90
21616;DHT22;10970;48.714;9.584;2023-05-14T01:02:09;11.20;99.90
21616;DHT22;10970;48.714;9.584;2023-05-14T01:04:36;11.20;99.90
21616;DHT22;10970;48.714;9.584;2023-05-14T01:07:20;11.20;99.90
21616;DHT22;10970;48.714;9.584;2023-05-14T01:09:52;11.20;99.90
21616;DHT22;10970;48.714;9.584;2023-05-14T01:15:22;11.10;99.90
21616;DHT22;10970;48.714;9.584;2023-05-14T01:17:55;11.10;99.90
21616;DHT22;10970;48.714;9.584;2023-05-14T01:20:24;11.10;99.90
21616;DHT22;10970;48.714;9.584;2023-05-14T01:22:50;11.10;99.90
21616;DHT22;10970;48.714;9.584;2023-05-14T01:25:15;11.10;99.90
21616;DHT22;10970;48.714;9.584;2023-05-14T01:30:30;11.20;99.90
21616;DHT22;10970;48.714;9.584;2023-05-14T01:33:00;11.10;99.90
21616;DHT22;10970;48.714;9.584;2023-05-14T01:35:29;11.20;99.90
21616;DHT22;10970;48.714;9.584;2023-05-14T01:38:00;11.10;99.90
21616;DHT22;10970;48.714;9.584;2023-05-14T01:40:26;11.10;99.90
21616;DHT22;10970;48.714;9.584;2023-05-14T01:42:52;11.10;99.90
21616;DHT22;10970;48.714;9.584;2023-05-14T01:45:20;11.10;99.90
21616;DHT22;10970;48.714;9.584;2023-05-14T01:47:46;11.10;99.90
21616;DHT22;10970;48.714;9.584;2023-05-14T01:50:11;11.10;99.90
21616;DHT22;10970;48.714;9.584;2023-05-14T01:52:37;11.10;99.90
21616;DHT22;10970;48.714;9.584;2023-05-14T01:55:03;11.10;99.90
21616;DHT22;10970;48.714;9.584;2023-05-14T01:57:29;11.00;99.90
21616;DHT22;10970;48.714;9.584;2023-05-14T01:59:55;11.00;99.90
21616;DHT22;10970;48.714;9.584;2023-05-14T02:02:21;11.00;99.90
21616;DHT22;10970;48.714;9.584;2023-05-14T02:04:47;11.00;99.90
21616;DHT22;10970;48.714;9.584;2023-05-14T02:07:13;11.00;99.90
21616;DHT22;10970;48.714;9.584;2023-05-14T02:09:38;11.00;99.90
21616;DHT22;10970;48.714;9.584;2023-05-14T02:12:06;11.00;99.90
21616;DHT22;10970;48.714;9.584;2023-05-14T02:14:32;11.00;99.90
21616;DHT22;10970;48.714;9.584;2023-05-14T02:16:58;11.00;99.90
21616;DHT22;10970;48.714;9.584;2023-05-14T02:19:24;11.10;99.90
21616;DHT22;10970;48.714;9.584;2023-05-14T02:21:49;11.10;99.90
21616;DHT22;10970;48.714;9.584;2023-05-14T02:24:15;11.00;99.90
21616;DHT22;10970;48.714;9.584;2023-05-14T02:26:41;11.10;99.90
21616;DHT22;10970;48.714;9.584;2023-05-14T02:29:07;11.10;99.90
21616;DHT22;10970;48.714;9.584;2023-05-14T02:31:32;11.10;99.90
21616;DHT22;10970;48.714;9.584;2023-05-14T02:34:00;11.10;99.90
21616;DHT22;10970;48.714;9.584;2023-05-14T02:36:26;11.00;99.90
21616;DHT22;10970;48.714;9.584;2023-05-14T02:38:52;11.00;99.90
21616;DHT22;10970;48.714;9.584;2023-05-14T02:41:17;11.00;99.90
21616;DHT22;10970;48.714;9.584;2023-05-14T02:43:43;11.00;99.90
21616;DHT22;10970;48.714;9.584;2023-05-14T02:46:08;11.10;99.90
21616;DHT22;10970;48.714;9.584;2023-05-14T02:48:34;11.10;99.90
21616;DHT22;10970;48.714;9.584;2023-05-14T02:51:00;11.10;99.90
21616;DHT22;10970;48.714;9.584;2023-05-14T02:53:26;11.10;99.90
21616;DHT22;10970;48.714;9.584;2023-05-14T02:55:51;11.10;99.90
21616;DHT22;10970;48.714;9.584;2023-05-14T02:58:17;11.20;99.90
21616;DHT22;10970;48.714;9.584;2023-05-14T03:00:43;11.10;99.90
21616;DHT22;10970;48.714;9.584;2023-05-14T03:03:09;11.10;99.90
21616;DHT22;10970;48.714;9.584;2023-05-14T03:05:35;11.20;99.90
21616;DHT22;10970;48.714;9.584;2023-05-14T03:08:00;11.20;99.90
21616;DHT22;10970;48.714;9.584;2023-05-14T03:10:26;11.10;99.90
21616;DHT22;10970;48.714;9.584;2023-05-14T03:12:52;11.10;99.90
21616;DHT22;10970;48.714;9.584;2023-05-14T03:15:17;11.20;99.90
21616;DHT22;10970;48.714;9.584;2023-05-14T03:17:43;11.20;99.90
21616;DHT22;10970;48.714;9.584;2023-05-14T03:20:09;11.20;99.90
21616;DHT22;10970;48.714;9.584;2023-05-14T03:22:35;11.10;99.90
21616;DHT22;10970;48.714;9.584;2023-05-14T03:25:01;11.10;99.90
21616;DHT22;10970;48.714;9.584;2023-05-14T03:27:26;11.10;99.90
21616;DHT22;10970;48.714;9.584;2023-05-14T03:29:52;11.10;99.90
21616;DHT22;10970;48.714;9.584;2023-05-14T03:32:18;11.10;99.90
21616;DHT22;10970;48.714;9.584;2023-05-14T03:34:43;11.10;99.90
21616;DHT22;10970;48.714;9.584;2023-05-14T03:37:09;11.10;99.90
21616;DHT22;10970;48.714;9.584;2023-05-14T03:39:35;11.10;99.90
21616;DHT22;10970;48.714;9.584;2023-05-14T03:42:01;11.10;99.90
21616;DHT22;10970;48.714;9.584;2023-05-14T03:44:26;11.10;99.90
21616;DHT22;10970;48.714;9.584;2023-05-14T03:46:52;11.10;99.90
21616;DHT22;10970;48.714;9.584;2023-05-14T03:49:18;11.10;99.90
21616;DHT22;10970;48.714;9.584;2023-05-14T03:51:43;11.20;99.90
21616;DHT22;10970;48.714;9.584;2023-05-14T03:54:09;11.20;99.90
21616;DHT22;10970;48.714;9.584;2023-05-14T03:56:35;11.20;99.90
21616;DHT22;10970;48.714;9.584;2023-05-14T03:59:01;11.20;99.90
21616;DHT22;10970;48.714;9.584;2023-05-14T04:01:26;11.20;99.90
21616;DHT22;10970;48.714;9.584;2023-05-14T04:03:52;11.20;99.90
21616;DHT22;10970;48.714;9.584;2023-05-14T04:06:18;11.20;99.90
21616;DHT22;10970;48.714;9.584;2023-05-14T04:08:43;11.10;99.90
21616;DHT22;10970;48.714;9.584;2023-05-14T04:11:09;11.00;99.90
21616;DHT22;10970;48.714;9.584;2023-05-14T04:13:35;11.00;99.90
21616;DHT22;10970;48.714;9.584;2023-05-14T04:16:01;11.00;99.90
21616;DHT22;10970;48.714;9.584;2023-05-14T04:18:26;11.00;99.90
21616;DHT22;10970;48.714;9.584;2023-05-14T04:20:52;11.00;99.90
21616;DHT22;10970;48.714;9.584;2023-05-14T04:23:18;11.00;99.90
21616;DHT22;10970;48.714;9.584;2023-05-14T04:25:43;10.90;99.90
21616;DHT22;10970;48.714;9.584;2023-05-14T04:28:09;11.00;99.90
21616;DHT22;10970;48.714;9.584;2023-05-14T04:30:34;11.00;99.90
21616;DHT22;10970;48.714;9.584;2023-05-14T04:33:00;11.00;99.90
21616;DHT22;10970;48.714;9.584;2023-05-14T04:35:26;10.90;99.90
21616;DHT22;10970;48.714;9.584;2023-05-14T04:37:52;10.90;99.90
21616;DHT22;10970;48.714;9.584;2023-05-14T04:40:17;10.90;99.90
21616;DHT22;10970;48.714;9.584;2023-05-14T04:42:43;10.90;99.90
21616;DHT22;10970;48.714;9.584;2023-05-14T04:45:09;10.90;99.90
21616;DHT22;10970;48.714;9.584;2023-05-14T04:47:35;10.90;99.90
21616;DHT22;10970;48.714;9.584;2023-05-14T04:50:01;11.00;99.90
21616;DHT22;10970;48.714;9.584;2023-05-14T04:52:27;11.10;99.90
21616;DHT22;10970;48.714;9.584;2023-05-14T04:54:53;10.90;99.90
21616;DHT22;10970;48.714;9.584;2023-05-14T04:57:18;10.90;99.90
21616;DHT22;10970;48.714;9.584;2023-05-14T04:59:44;11.00;99.90
21616;DHT22;10970;48.714;9.584;2023-05-14T05:02:10;11.00;99.90
21616;DHT22;10970;48.714;9.584;2023-05-14T05:04:35;11.00;99.90
21616;DHT22;10970;48.714;9.584;2023-05-14T05:07:01;10.90;99.90
21616;DHT22;10970;48.714;9.584;2023-05-14T05:09:27;10.90;99.90
21616;DHT22;10970;48.714;9.584;2023-05-14T05:11:52;10.90;99.90
21616;DHT22;10970;48.714;9.584;2023-05-14T05:14:18;10.80;99.90
21616;DHT22;10970;48.714;9.584;2023-05-14T05:16:44;10.90;99.90
21616;DHT22;10970;48.714;9.584;2023-05-14T05:19:09;10.90;99.90
21616;DHT22;10970;48.714;9.584;2023-05-14T05:21:35;10.90;99.90
21616;DHT22;10970;48.714;9.584;2023-05-14T05:24:03;10.90;99.90
21616;DHT22;10970;48.714;9.584;2023-05-14T05:26:29;10.90;99.90
21616;DHT22;10970;48.714;9.584;2023-05-14T05:28:56;11.00;99.90
21616;DHT22;10970;48.714;9.584;2023-05-14T05:31:21;11.00;99.90
21616;DHT22;10970;48.714;9.584;2023-05-14T05:33:47;11.00;99.90
21616;DHT22;10970;48.714;9.584;2023-05-14T05:36:13;11.10;99.90
21616;DHT22;10970;48.714;9.584;2023-05-14T05:38:38;11.20;99.90
21616;DHT22;10970;48.714;9.584;2023-05-14T05:41:04;11.30;99.90
21616;DHT22;10970;48.714;9.584;2023-05-14T05:43:30;11.40;99.90
21616;DHT22;10970;48.714;9.584;2023-05-14T05:45:59;11.50;99.90
21616;DHT22;10970;48.714;9.584;2023-05-14T05:48:24;11.40;99.90
21616;DHT22;10970;48.714;9.584;2023-05-14T05:50:50;11.50;99.90
21616;DHT22;10970;48.714;9.584;2023-05-14T05:53:16;11.50;99.90
21616;DHT22;10970;48.714;9.584;2023-05-14T05:55:41;11.60;99.90
21616;DHT22;10970;48.714;9.584;2023-05-14T05:58:07;11.70;99.90
21616;DHT22;10970;48.714;9.584;2023-05-14T06:00:33;11.80;99.90
21616;DHT22;10970;48.714;9.584;2023-05-14T06:02:59;11.80;99.90
21616;DHT22;10970;48.714;9.584;2023-05-14T06:05:25;11.90;99.90
21616;DHT22;10970;48.714;9.584;2023-05-14T06:07:51;11.90;99.90
21616;DHT22;10970;48.714;9.584;2023-05-14T06:10:18;11.80;99.90
21616;DHT22;10970;48.714;9.584;2023-05-14T06:12:44;12.00;99.90
21616;DHT22;10970;48.714;9.584;2023-05-14T06:15:10;12.10;99.90
21616;DHT22;10970;48.714;9.584;2023-05-14T06:17:36;12.30;99.90
21616;DHT22;10970;48.714;9.584;2023-05-14T06:20:02;12.40;99.90
21616;DHT22;10970;48.714;9.584;2023-05-14T06:22:30;12.50;99.90
21616;DHT22;10970;48.714;9.584;2023-05-14T06:24:55;12.50;99.90
21616;DHT22;10970;48.714;9.584;2023-05-14T06:27:21;12.70;99.90
21616;DHT22;10970;48.714;9.584;2023-05-14T06:29:47;12.80;99.90
21616;DHT22;10970;48.714;9.584;2023-05-14T06:32:12;12.80;99.90
21616;DHT22;10970;48.714;9.584;2023-05-14T06:34:40;12.90;99.90
21616;DHT22;10970;48.714;9.584;2023-05-14T06:37:07;13.00;99.90
21616;DHT22;10970;48.714;9.584;2023-05-14T06:39:34;13.00;99.90
21616;DHT22;10970;48.714;9.584;2023-05-14T06:42:00;12.90;99.90
21616;DHT22;10970;48.714;9.584;2023-05-14T06:44:26;12.80;99.90
21616;DHT22;10970;48.714;9.584;2023-05-14T06:46:52;12.70;99.90
21616;DHT22;10970;48.714;9.584;2023-05-14T06:49:17;12.60;99.90
21616;DHT22;10970;48.714;9.584;2023-05-14T06:51:43;12.50;99.90
21616;DHT22;10970;48.714;9.584;2023-05-14T06:54:09;12.60;99.90
21616;DHT22;10970;48.714;9.584;2023-05-14T06:56:34;12.60;99.90
21616;DHT22;10970;48.714;9.584;2023-05-14T06:59:00;12.70;99.90
21616;DHT22;10970;48.714;9.584;2023-05-14T07:01:26;12.80;99.90
21616;DHT22;10970;48.714;9.584;2023-05-14T07:03:51;12.90;99.90
21616;DHT22;10970;48.714;9.584;2023-05-14T07:06:17;12.80;99.90
21616;DHT22;10970;48.714;9.584;2023-05-14T07:08:43;12.90;99.90
21616;DHT22;10970;48.714;9.584;2023-05-14T07:11:11;12.90;99.90
21616;DHT22;10970;48.714;9.584;2023-05-14T07:13:40;13.00;99.90
21616;DHT22;10970;48.714;9.584;2023-05-14T07:16:07;13.00;99.90
21616;DHT22;10970;48.714;9.584;2023-05-14T07:18:35;13.10;99.90
21616;DHT22;10970;48.714;9.584;2023-05-14T07:21:01;13.30;99.90
21616;DHT22;10970;48.714;9.584;2023-05-14T07:23:26;13.40;99.90
21616;DHT22;10970;48.714;9.584;2023-05-14T07:25:52;13.50;99.90
21616;DHT22;10970;48.714;9.584;2023-05-14T07:28:18;13.70;99.90
21616;DHT22;10970;48.714;9.584;2023-05-14T07:30:43;13.90;99.90
21616;DHT22;10970;48.714;9.584;2023-05-14T07:33:09;14.00;99.90
21616;DHT22;10970;48.714;9.584;2023-05-14T07:35:35;14.20;99.90
21616;DHT22;10970;48.714;9.584;2023-05-14T07:38:00;14.30;99.90
21616;DHT22;10970;48.714;9.584;2023-05-14T07:40:26;14.40;99.90
21616;DHT22;10970;48.714;9.584;2023-05-14T07:42:51;14.60;99.90
21616;DHT22;10970;48.714;9.584;2023-05-14T07:45:17;14.80;99.90
21616;DHT22;10970;48.714;9.584;2023-05-14T07:47:43;15.10;99.90
21616;DHT22;10970;48.714;9.584;2023-05-14T07:50:09;15.20;99.90
21616;DHT22;10970;48.714;9.584;2023-05-14T07:52:35;15.30;99.90
21616;DHT22;10970;48.714;9.584;2023-05-14T07:55:02;15.60;99.90
21616;DHT22;10970;48.714;9.584;2023-05-14T07:57:27;15.60;99.90
21616;DHT22;10970;48.714;9.584;2023-05-14T07:59:53;15.60;99.90
21616;DHT22;10970;48.714;9.584;2023-05-14T08:02:19;15.80;99.90
21616;DHT22;10970;48.714;9.584;2023-05-14T08:04:44;16.10;99.90
21616;DHT22;10970;48.714;9.584;2023-05-14T08:07:10;16.50;99.90
21616;DHT22;10970;48.714;9.584;2023-05-14T08:09:36;16.60;99.90
21616;DHT22;10970;48.714;9.584;2023-05-14T08:12:01;16.60;99.90
21616;DHT22;10970;48.714;9.584;2023-05-14T08:14:27;16.70;99.90
21616;DHT22;10970;48.714;9.584;2023-05-14T08:16:53;16.90;99.90
21616;DHT22;10970;48.714;9.584;2023-05-14T08:19:19;16.70;99.90
21616;DHT22;10970;48.714;9.584;2023-05-14T08:21:44;16.90;99.90
21616;DHT22;10970;48.714;9.584;2023-05-14T08:24:10;17.00;99.90
21616;DHT22;10970;48.714;9.584;2023-05-14T08:26:36;17.00;99.90
21616;DHT22;10970;48.714;9.584;2023-05-14T08:29:03;17.20;99.90
21616;DHT22;10970;48.714;9.584;2023-05-14T08:31:29;16.90;99.90
21616;DHT22;10970;48.714;9.584;2023-05-14T08:33:55;16.80;99.90
21616;DHT22;10970;48.714;9.584;2023-05-14T08:36:20;16.20;99.90
21616;DHT22;10970;48.714;9.584;2023-05-14T08:38:46;15.90;99.90
21616;DHT22;10970;48.714;9.584;2023-05-14T08:41:14;15.80;99.90
21616;DHT22;10970;48.714;9.584;2023-05-14T08:46:27;16.50;99.90
21616;DHT22;10970;48.714;9.584;2023-05-14T08:48:58;16.40;99.90
21616;DHT22;10970;48.714;9.584;2023-05-14T08:51:25;16.50;99.90
21616;DHT22;10970;48.714;9.584;2023-05-14T08:53:52;16.60;99.90
21616;DHT22;10970;48.714;9.584;2023-05-14T08:56:18;16.70;99.90
21616;DHT22;10970;48.714;9.584;2023-05-14T08:58:44;16.70;99.90
21616;DHT22;10970;48.714;9.584;2023-05-14T09:01:09;16.60;99.90
21616;DHT22;10970;48.714;9.584;2023-05-14T09:03:36;16.70;99.90
21616;DHT22;10970;48.714;9.584;2023-05-14T09:06:03;17.10;99.90
21616;DHT22;10970;48.714;9.584;2023-05-14T09:08:30;17.10;99.90
21616;DHT22;10970;48.714;9.584;2023-05-14T09:10:55;17.20;99.90
21616;DHT22;10970;48.714;9.584;2023-05-14T09:13:21;16.90;99.90
21616;DHT22;10970;48.714;9.584;2023-05-14T09:15:47;17.00;99.90
21616;DHT22;10970;48.714;9.584;2023-05-14T09:18:14;17.10;99.90
21616;DHT22;10970;48.714;9.584;2023-05-14T09:20:40;17.30;99.90
21616;DHT22;10970;48.714;9.584;2023-05-14T09:23:05;17.50;99.90
21616;DHT22;10970;48.714;9.584;2023-05-14T09:25:31;16.80;99.90
21616;DHT22;10970;48.714;9.584;2023-05-14T09:27:57;16.70;99.90
21616;DHT22;10970;48.714;9.584;2023-05-14T09:30:24;16.90;99.90
21616;DHT22;10970;48.714;9.584;2023-05-14T09:32:53;17.20;99.90
21616;DHT22;10970;48.714;9.584;2023-05-14T09:35:22;17.20;99.90
21616;DHT22;10970;48.714;9.584;2023-05-14T09:37:50;17.20;99.90
21616;DHT22;10970;48.714;9.584;2023-05-14T09:40:19;17.30;99.90
21616;DHT22;10970;48.714;9.584;2023-05-14T09:42:45;17.20;99.90
21616;DHT22;10970;48.714;9.584;2023-05-14T09:45:12;17.30;99.90
21616;DHT22;10970;48.714;9.584;2023-05-14T09:47:38;17.10;99.90
21616;DHT22;10970;48.714;9.584;2023-05-14T09:50:05;17.20;99.90
21616;DHT22;10970;48.714;9.584;2023-05-14T09:52:31;17.30;99.90
21616;DHT22;10970;48.714;9.584;2023-05-14T09:54:57;17.60;99.90
21616;DHT22;10970;48.714;9.584;2023-05-14T09:57:23;17.70;99.90
21616;DHT22;10970;48.714;9.584;2023-05-14T09:59:48;17.60;99.90
21616;DHT22;10970;48.714;9.584;2023-05-14T10:02:44;17.60;99.90
21616;DHT22;10970;48.714;9.584;2023-05-14T10:05:11;18.00;99.90
21616;DHT22;10970;48.714;9.584;2023-05-14T10:07:45;18.30;99.90
21616;DHT22;10970;48.714;9.584;2023-05-14T10:10:20;18.20;99.90
21616;DHT22;10970;48.714;9.584;2023-05-14T10:12:52;18.10;99.90
21616;DHT22;10970;48.714;9.584;2023-05-14T10:15:48;17.70;99.90
21616;DHT22;10970;48.714;9.584;2023-05-14T10:18:18;17.80;99.90
21616;DHT22;10970;48.714;9.584;2023-05-14T10:20:47;17.80;99.90
21616;DHT22;10970;48.714;9.584;2023-05-14T10:23:17;17.80;99.90
21616;DHT22;10970;48.714;9.584;2023-05-14T10:25:43;17.60;99.90
21616;DHT22;10970;48.714;9.584;2023-05-14T10:28:09;17.30;99.90
21616;DHT22;10970;48.714;9.584;2023-05-14T10:30:44;17.40;99.90
21616;DHT22;10970;48.714;9.584;2023-05-14T10:33:13;17.60;99.90
21616;DHT22;10970;48.714;9.584;2023-05-14T10:36:07;17.60;99.90
21616;DHT22;10970;48.714;9.584;2023-05-14T10:38:36;17.50;99.90
21616;DHT22;10970;48.714;9.584;2023-05-14T10:41:03;17.30;99.90
21616;DHT22;10970;48.714;9.584;2023-05-14T10:43:30;17.50;99.90
21616;DHT22;10970;48.714;9.584;2023-05-14T10:45:57;17.30;99.90
21616;DHT22;10970;48.714;9.584;2023-05-14T10:48:24;17.20;99.90
21616;DHT22;10970;48.714;9.584;2023-05-14T10:50:51;17.00;99.90
21616;DHT22;10970;48.714;9.584;2023-05-14T10:53:17;17.00;99.90
21616;DHT22;10970;48.714;9.584;2023-05-14T10:55:43;17.20;99.90
21616;DHT22;10970;48.714;9.584;2023-05-14T10:58:10;17.30;99.90
21616;DHT22;10970;48.714;9.584;2023-05-14T11:00:36;17.40;99.90
21616;DHT22;10970;48.714;9.584;2023-05-14T11:03:05;17.70;99.90
21616;DHT22;10970;48.714;9.584;2023-05-14T11:05:32;18.00;99.90
21616;DHT22;10970;48.714;9.584;2023-05-14T11:07:58;17.90;99.90
21616;DHT22;10970;48.714;9.584;2023-05-14T11:10:26;18.00;99.90
21616;DHT22;10970;48.714;9.584;2023-05-14T11:12:55;17.70;99.90
21616;DHT22;10970;48.714;9.584;2023-05-14T11:15:23;17.70;99.90
21616;DHT22;10970;48.714;9.584;2023-05-14T11:17:51;17.60;99.90
21616;DHT22;10970;48.714;9.584;2023-05-14T11:20:18;17.50;99.90
21616;DHT22;10970;48.714;9.584;2023-05-14T11:22:45;17.40;99.90
21616;DHT22;10970;48.714;9.584;2023-05-14T11:25:13;17.20;99.90
21616;DHT22;10970;48.714;9.584;2023-05-14T11:27:40;17.70;99.90
21616;DHT22;10970;48.714;9.584;2023-05-14T11:30:16;17.90;99.90
21616;DHT22;10970;48.714;9.584;2023-05-14T11:32:44;18.10;99.90
21616;DHT22;10970;48.714;9.584;2023-05-14T11:35:11;18.10;99.90
21616;DHT22;10970;48.714;9.584;2023-05-14T11:37:36;18.20;99.90
21616;DHT22;10970;48.714;9.584;2023-05-14T11:40:08;18.40;99.90
21616;DHT22;10970;48.714;9.584;2023-05-14T11:42:37;18.30;99.90
21616;DHT22;10970;48.714;9.584;2023-05-14T11:45:03;18.10;99.90
21616;DHT22;10970;48.714;9.584;2023-05-14T11:47:29;18.20;99.90
21616;DHT22;10970;48.714;9.584;2023-05-14T11:49:58;18.40;99.90
21616;DHT22;10970;48.714;9.584;2023-05-14T11:52:25;18.10;99.90
21616;DHT22;10970;48.714;9.584;2023-05-14T11:54:51;18.00;99.90
21616;DHT22;10970;48.714;9.584;2023-05-14T11:57:18;18.00;99.90
21616;DHT22;10970;48.714;9.584;2023-05-14T11:59:45;18.00;99.90
21616;DHT22;10970;48.714;9.584;2023-05-14T12:02:17;17.90;99.90
21616;DHT22;10970;48.714;9.584;2023-05-14T12:04:45;18.00;99.90
21616;DHT22;10970;48.714;9.584;2023-05-14T12:07:15;18.30;99.90
21616;DHT22;10970;48.714;9.584;2023-05-14T12:09:43;18.70;99.90
21616;DHT22;10970;48.714;9.584;2023-05-14T12:12:19;18.90;99.90
21616;DHT22;10970;48.714;9.584;2023-05-14T12:14:46;19.00;99.90
21616;DHT22;10970;48.714;9.584;2023-05-14T12:17:17;18.90;99.90
21616;DHT22;10970;48.714;9.584;2023-05-14T12:19:44;18.90;99.90
21616;DHT22;10970;48.714;9.584;2023-05-14T12:22:12;18.90;99.90
21616;DHT22;10970;48.714;9.584;2023-05-14T12:24:38;18.70;99.90
21616;DHT22;10970;48.714;9.584;2023-05-14T12:27:04;18.60;99.90
21616;DHT22;10970;48.714;9.584;2023-05-14T12:29:33;18.50;99.90
21616;DHT22;10970;48.714;9.584;2023-05-14T12:31:59;18.70;99.90
21616;DHT22;10970;48.714;9.584;2023-05-14T12:34:25;18.80;99.90
21616;DHT22;10970;48.714;9.584;2023-05-14T12:36:50;18.30;99.90
21616;DHT22;10970;48.714;9.584;2023-05-14T12:39:16;18.30;99.90
21616;DHT22;10970;48.714;9.584;2023-05-14T12:41:42;18.20;99.90
21616;DHT22;10970;48.714;9.584;2023-05-14T12:44:08;18.20;99.90
21616;DHT22;10970;48.714;9.584;2023-05-14T12:46:33;18.10;99.90
21616;DHT22;10970;48.714;9.584;2023-05-14T12:48:59;18.10;99.90
21616;DHT22;10970;48.714;9.584;2023-05-14T12:51:25;18.20;99.90
21616;DHT22;10970;48.714;9.584;2023-05-14T12:53:51;18.40;99.90
21616;DHT22;10970;48.714;9.584;2023-05-14T12:56:18;18.50;99.90
21616;DHT22;10970;48.714;9.584;2023-05-14T12:58:44;18.60;99.90
21616;DHT22;10970;48.714;9.584;2023-05-14T13:01:11;18.70;99.90
21616;DHT22;10970;48.714;9.584;2023-05-14T13:03:36;18.60;99.90
21616;DHT22;10970;48.714;9.584;2023-05-14T13:06:02;18.50;99.90
21616;DHT22;10970;48.714;9.584;2023-05-14T13:08:28;18.50;99.90
21616;DHT22;10970;48.714;9.584;2023-05-14T13:10:55;18.50;99.90
21616;DHT22;10970;48.714;9.584;2023-05-14T13:13:21;18.70;99.90
21616;DHT22;10970;48.714;9.584;2023-05-14T13:15:47;18.90;99.90
21616;DHT22;10970;48.714;9.584;2023-05-14T13:18:14;19.00;99.90
21616;DHT22;10970;48.714;9.584;2023-05-14T13:20:39;18.90;99.90
21616;DHT22;10970;48.714;9.584;2023-05-14T13:23:05;19.00;99.90
21616;DHT22;10970;48.714;9.584;2023-05-14T13:25:31;18.80;99.90
21616;DHT22;10970;48.714;9.584;2023-05-14T13:27:57;18.50;99.90
21616;DHT22;10970;48.714;9.584;2023-05-14T13:30:23;18.40;99.90
21616;DHT22;10970;48.714;9.584;2023-05-14T13:32:49;18.20;99.90
21616;DHT22;10970;48.714;9.584;2023-05-14T13:35:15;18.10;99.90
21616;DHT22;10970;48.714;9.584;2023-05-14T13:37:42;17.90;99.90
21616;DHT22;10970;48.714;9.584;2023-05-14T13:40:08;17.80;99.90
21616;DHT22;10970;48.714;9.584;2023-05-14T13:42:37;17.80;99.90
21616;DHT22;10970;48.714;9.584;2023-05-14T13:45:06;18.00;99.90
21616;DHT22;10970;48.714;9.584;2023-05-14T13:47:32;18.20;99.90
21616;DHT22;10970;48.714;9.584;2023-05-14T13:49:58;18.20;99.90
21616;DHT22;10970;48.714;9.584;2023-05-14T13:52:24;18.10;99.90
21616;DHT22;10970;48.714;9.584;2023-05-14T13:54:50;18.10;99.90
21616;DHT22;10970;48.714;9.584;2023-05-14T13:57:15;18.30;99.90
21616;DHT22;10970;48.714;9.584;2023-05-14T13:59:42;18.70;99.90
21616;DHT22;10970;48.714;9.584;2023-05-14T14:02:08;19.00;99.90
21616;DHT22;10970;48.714;9.584;2023-05-14T14:04:33;19.10;99.90
21616;DHT22;10970;48.714;9.584;2023-05-14T14:06:59;19.00;99.90
21616;DHT22;10970;48.714;9.584;2023-05-14T14:09:25;18.80;99.90
21616;DHT22;10970;48.714;9.584;2023-05-14T14:11:51;18.60;99.90
21616;DHT22;10970;48.714;9.584;2023-05-14T14:14:17;18.70;99.90
21616;DHT22;10970;48.714;9.584;2023-05-14T14:16:42;18.90;99.90
21616;DHT22;10970;48.714;9.584;2023-05-14T14:19:08;18.90;99.90
21616;DHT22;10970;48.714;9.584;2023-05-14T14:21:34;18.90;99.90
21616;DHT22;10970;48.714;9.584;2023-05-14T14:24:00;19.00;99.90
21616;DHT22;10970;48.714;9.584;2023-05-14T14:26:27;19.00;99.90
21616;DHT22;10970;48.714;9.584;2023-05-14T14:28:53;19.10;99.90
21616;DHT22;10970;48.714;9.584;2023-05-14T14:31:20;19.10;99.90
21616;DHT22;10970;48.714;9.584;2023-05-14T14:33:45;19.00;99.90
21616;DHT22;10970;48.714;9.584;2023-05-14T14:36:11;18.70;99.90
21616;DHT22;10970;48.714;9.584;2023-05-14T14:38:37;18.50;99.90
21616;DHT22;10970;48.714;9.584;2023-05-14T14:41:04;18.30;99.90
21616;DHT22;10970;48.714;9.584;2023-05-14T14:43:36;18.00;99.90
21616;DHT22;10970;48.714;9.584;2023-05-14T14:46:01;17.90;99.90
21616;DHT22;10970;48.714;9.584;2023-05-14T14:48:30;17.80;99.90
21616;DHT22;10970;48.714;9.584;2023-05-14T14:50:58;17.90;99.90
21616;DHT22;10970;48.714;9.584;2023-05-14T14:53:24;17.80;99.90
21616;DHT22;10970;48.714;9.584;2023-05-14T14:55:50;17.80;99.90
21616;DHT22;10970;48.714;9.584;2023-05-14T14:58:17;17.60;99.90
21616;DHT22;10970;48.714;9.584;2023-05-14T15:00:43;17.50;99.90
21616;DHT22;10970;48.714;9.584;2023-05-14T15:03:10;17.50;99.90
21616;DHT22;10970;48.714;9.584;2023-05-14T15:05:36;17.40;99.90
21616;DHT22;10970;48.714;9.584;2023-05-14T15:08:02;17.40;99.90
21616;DHT22;10970;48.714;9.584;2023-05-14T15:10:29;17.40;99.90
21616;DHT22;10970;48.714;9.584;2023-05-14T15:12:58;17.30;99.90
21616;DHT22;10970;48.714;9.584;2023-05-14T15:15:25;17.40;99.90
21616;DHT22;10970;48.714;9.584;2023-05-14T15:17:50;17.40;99.90
21616;DHT22;10970;48.714;9.584;2023-05-14T15:20:16;17.60;99.90
21616;DHT22;10970;48.714;9.584;2023-05-14T15:22:43;17.70;99.90
21616;DHT22;10970;48.714;9.584;2023-05-14T15:25:09;17.80;99.90
21616;DHT22;10970;48.714;9.584;2023-05-14T15:27:35;17.70;99.90
21616;DHT22;10970;48.714;9.584;2023-05-14T15:30:02;17.50;99.90
21616;DHT22;10970;48.714;9.584;2023-05-14T15:32:28;17.40;99.90
21616;DHT22;10970;48.714;9.584;2023-05-14T15:34:55;17.40;99.90